»·PEaware :: DCM206 KPSP-KLAS

DCM206 :: KPSP-KLAS

FLIGHT INFORMATION

Flight Status: Arrived
Operator:
DotCom
More flights by this operator :: More flights under this callsign
Pilot: Nick L. (7253)
Aircraft: BOEING 737-800
(B738)
More flights by this aircraft type
Origin: KPSP Palm Springs Intl
United States
Destination: KLAS Harry Reid Intl
United States
More flights between these airports :: More routes between these airports
Route: CATH1 PSP V370 TNP KEPEC6
File this flight plan on PilotEdge
Remarks: RMK / SIMBRIEF
Altitude:
(Current/Filed)
36,000ft
Speed:
(Current/Filed)
467kts
Departed: 12-Feb-21 02:28 PM
Arrived: 12-Feb-21 03:14 PM
Distance/Time
Traveled:
150nm/0:45
Distance/Time
To Go:
Arrived

Flight Plot

Page will automatically refresh every two minutes.

Flight plan parsing failed; only flown route is shown


Map Options




Map Legend


Flown Route
Filed Route
Departure Airport
Arrival Airport
Navaid (VOR, NDB)
Fix

Horizontal Profiles

Position Reports

Time Latitude Longitude Heading Altitude Ground
Speed
12-Feb-21 14:07 33.825755 -116.509255 270 435ft 0kts
12-Feb-21 14:08 33.825755 -116.509255 270 435ft 0kts
12-Feb-21 14:09 33.825755 -116.509255 270 435ft 0kts
12-Feb-21 14:10 33.825755 -116.509255 270 435ft 0kts
12-Feb-21 14:11 33.825755 -116.509255 270 435ft 0kts
12-Feb-21 14:12 33.825755 -116.509255 270 435ft 0kts
12-Feb-21 14:13 33.825755 -116.509255 270 435ft 0kts
12-Feb-21 14:14 33.825755 -116.509255 270 435ft 0kts
12-Feb-21 14:15 33.825755 -116.509255 270 435ft 0kts
12-Feb-21 14:16 33.825755 -116.509255 270 435ft 0kts
12-Feb-21 14:17 33.825712 -116.509396 229 435ft 3kts
12-Feb-21 14:18 33.825423 -116.507962 89 435ft 0kts
12-Feb-21 14:19 33.825423 -116.507962 89 435ft 0kts
12-Feb-21 14:20 33.824804 -116.505386 144 435ft 14kts
12-Feb-21 14:21 33.820490 -116.501540 143 435ft 25kts
12-Feb-21 14:22 33.818523 -116.499144 91 435ft 0kts
12-Feb-21 14:23 33.818523 -116.499144 91 435ft 0kts
12-Feb-21 14:24 33.818523 -116.499144 91 435ft 0kts
12-Feb-21 14:25 33.818523 -116.499144 91 435ft 0kts
12-Feb-21 14:26 33.819090 -116.498294 336 435ft 9kts
12-Feb-21 14:27 33.843154 -116.519736 321 961ft 183kts
12-Feb-21 14:28 33.884624 -116.557158 321 3479ft 210kts
12-Feb-21 14:29 33.944777 -116.571671 34 5768ft 273kts
12-Feb-21 14:30 33.958112 -116.482014 119 7015ft 296kts
12-Feb-21 14:31 33.887239 -116.434551 150 7035ft 301kts
12-Feb-21 14:32 33.837421 -116.353227 113 10022ft 311kts
12-Feb-21 14:33 33.847956 -116.250238 51 11289ft 350kts
12-Feb-21 14:34 33.903084 -116.151504 51 14063ft 363kts
12-Feb-21 14:35 33.959633 -116.048273 51 16702ft 377kts
12-Feb-21 14:36 34.018141 -115.941418 50 19070ft 390kts
12-Feb-21 14:37 34.078729 -115.830934 50 21222ft 402kts
12-Feb-21 14:38 34.152149 -115.729818 38 23175ft 405kts
12-Feb-21 14:39 34.234027 -115.634379 37 25010ft 415kts
12-Feb-21 14:40 34.320971 -115.541374 27 26628ft 418kts
12-Feb-21 14:41 34.426996 -115.485397 15 28088ft 419kts
12-Feb-21 14:42 34.536431 -115.437805 14 29841ft 418kts
12-Feb-21 14:43 34.644692 -115.390559 14 31644ft 412kts
12-Feb-21 14:44 34.753963 -115.348783 4 31539ft 397kts
12-Feb-21 14:45 34.859850 -115.358882 343 29687ft 397kts
12-Feb-21 14:46 34.961391 -115.398460 344 27537ft 371kts
12-Feb-21 14:47 35.055940 -115.435554 345 25516ft 348kts
12-Feb-21 14:48 35.149976 -115.472301 345 23494ft 357kts
12-Feb-21 14:49 35.241986 -115.508385 345 21481ft 340kts
12-Feb-21 14:50 35.331655 -115.543532 345 19486ft 353kts
12-Feb-21 14:51 35.422491 -115.579373 345 17430ft 337kts
12-Feb-21 14:52 35.509338 -115.613662 344 15560ft 324kts
12-Feb-21 14:53 35.597228 -115.648381 344 13761ft 327kts
12-Feb-21 14:54 35.679688 -115.657854 19 13047ft 284kts
12-Feb-21 14:55 35.742660 -115.599478 33 13043ft 287kts
12-Feb-21 14:56 35.817656 -115.571461 2 13047ft 286kts
12-Feb-21 14:57 35.897007 -115.567647 3 13037ft 286kts
12-Feb-21 14:58 35.971316 -115.541387 41 12970ft 283kts
12-Feb-21 14:59 36.005947 -115.455629 66 11712ft 281kts
12-Feb-21 15:00 36.028845 -115.367134 82 10960ft 260kts
12-Feb-21 15:01 36.024052 -115.277222 92 10041ft 270kts
12-Feb-21 15:02 36.017289 -115.184810 92 8858ft 266kts
12-Feb-21 15:03 36.011259 -115.098126 92 7948ft 241kts
12-Feb-21 15:04 36.005264 -115.016527 93 6680ft 237kts
12-Feb-21 15:05 36.000118 -114.936767 92 5436ft 233kts
12-Feb-21 15:06 35.998915 -114.858696 60 4999ft 227kts
12-Feb-21 15:07 36.054488 -114.846667 327 5012ft 221kts
12-Feb-21 15:08 36.075908 -114.915632 265 5019ft 228kts
12-Feb-21 15:09 36.073548 -114.992563 272 4330ft 205kts
12-Feb-21 15:10 36.073630 -115.053842 273 3362ft 159kts
12-Feb-21 15:11 36.073659 -115.108388 273 2510ft 156kts
12-Feb-21 15:12 36.073678 -115.150972 271 2188ft 46kts
12-Feb-21 15:13 36.074797 -115.155256 299 2188ft 0kts
12-Feb-21 15:14 36.074800 -115.155265 299 2188ft 0kts
12-Feb-21 15:15 36.074906 -115.155550 290 2188ft 2kts
12-Feb-21 15:16 36.076928 -115.158035 327 2188ft 11kts
12-Feb-21 15:17 36.078033 -115.160953 270 2188ft 21kts

Navigation Log

Ident Type
Flight plan parsing failed, navigation log unavailable